createdAt,value
2019-01-28T00:01:48.402Z,11.80
2019-01-28T00:04:51.156Z,8.43
2019-01-28T00:07:53.828Z,7.73
2019-01-28T00:10:56.519Z,9.77
2019-01-28T00:13:59.210Z,9.23
2019-01-28T00:17:01.742Z,8.80
2019-01-28T00:20:05.419Z,9.13
2019-01-28T00:23:08.052Z,9.53
2019-01-28T00:26:10.548Z,7.87
2019-01-28T00:29:13.103Z,10.70
2019-01-28T00:32:15.639Z,9.73
2019-01-28T00:35:18.248Z,7.77
2019-01-28T00:38:20.796Z,10.03
2019-01-28T00:41:23.490Z,9.50
2019-01-28T00:44:28.011Z,8.83
2019-01-28T00:47:34.282Z,11.07
2019-01-28T00:50:36.821Z,7.83
2019-01-28T00:53:39.646Z,8.90
2019-01-28T00:56:42.164Z,12.43
2019-01-28T00:59:44.738Z,9.83
2019-01-28T01:02:49.466Z,8.67
2019-01-28T01:05:52.186Z,12.83
2019-01-28T01:08:54.699Z,7.70
2019-01-28T01:11:58.437Z,11.83
2019-01-28T01:15:01.076Z,10.37
2019-01-28T01:18:04.087Z,10.27
2019-01-28T01:21:06.676Z,11.10
2019-01-28T01:24:09.357Z,9.90
2019-01-28T01:27:11.964Z,8.20
2019-01-28T01:30:15.882Z,10.17
2019-01-28T01:33:18.421Z,10.80
2019-01-28T01:36:20.946Z,11.17
2019-01-28T01:39:23.650Z,8.63
2019-01-28T01:42:26.247Z,10.33
2019-01-28T01:45:28.763Z,8.37
2019-01-28T01:48:31.441Z,9.97
2019-01-28T01:51:33.963Z,12.63
2019-01-28T01:54:36.600Z,9.87
2019-01-28T01:57:39.211Z,10.97
2019-01-28T02:00:41.748Z,11.43
2019-01-28T02:03:44.305Z,11.70
2019-01-28T02:06:46.956Z,11.40
2019-01-28T02:09:49.559Z,11.27
2019-01-28T02:12:52.129Z,10.90
2019-01-28T02:15:54.802Z,11.83
2019-01-28T02:18:57.468Z,12.53
2019-01-28T02:22:00.134Z,11.57
2019-01-28T02:25:03.038Z,10.80
2019-01-28T02:28:05.666Z,11.87
2019-01-28T02:31:08.426Z,14.77
2019-01-28T02:34:10.971Z,10.30
2019-01-28T02:37:13.676Z,9.63
2019-01-28T02:40:17.057Z,8.87
2019-01-28T02:43:19.729Z,11.67
2019-01-28T02:46:22.366Z,12.97
2019-01-28T02:49:25.054Z,11.43
2019-01-28T02:52:27.672Z,10.50
2019-01-28T02:55:30.382Z,11.47
2019-01-28T02:58:32.995Z,11.63
2019-01-28T03:01:35.603Z,11.03
2019-01-28T03:04:38.232Z,10.70
2019-01-28T03:07:40.975Z,13.83
2019-01-28T03:10:43.535Z,13.20
2019-01-28T03:13:46.219Z,9.83
2019-01-28T03:16:48.826Z,13.80
2019-01-28T03:19:51.434Z,11.37
2019-01-28T03:22:54.275Z,12.07
2019-01-28T03:25:56.838Z,12.27
2019-01-28T03:28:59.517Z,10.87
2019-01-28T03:32:02.218Z,11.47
2019-01-28T03:35:05.383Z,9.43
2019-01-28T03:38:08.001Z,12.67
2019-01-28T03:41:10.691Z,9.63
2019-01-28T03:44:13.577Z,11.07
2019-01-28T03:47:16.350Z,10.33
2019-01-28T03:50:19.132Z,12.67
2019-01-28T03:53:21.799Z,12.17
2019-01-28T03:56:25.799Z,12.20
2019-01-28T03:59:28.427Z,11.43
2019-01-28T04:02:43.539Z,12.53
2019-01-28T04:05:46.215Z,9.50
2019-01-28T04:08:48.806Z,11.70
2019-01-28T04:11:51.392Z,10.57
2019-01-28T04:14:54.192Z,10.77
2019-01-28T04:17:56.864Z,12.80
2019-01-28T04:20:59.492Z,11.13
2019-01-28T04:24:02.037Z,14.20
2019-01-28T04:27:05.015Z,12.83
2019-01-28T04:30:13.842Z,10.23
2019-01-28T04:33:16.673Z,9.37
2019-01-28T04:36:19.284Z,13.97
2019-01-28T04:39:22.533Z,12.83
2019-01-28T04:42:25.156Z,11.17
2019-01-28T04:45:27.894Z,12.90
2019-01-28T04:48:30.459Z,11.60
2019-01-28T04:51:33.032Z,8.57
2019-01-28T04:54:35.652Z,13.17
2019-01-28T04:57:38.424Z,11.70
2019-01-28T05:00:41.079Z,12.87
2019-01-28T05:03:43.812Z,12.33
2019-01-28T05:06:46.506Z,12.60
2019-01-28T05:09:49.174Z,10.67
2019-01-28T05:12:51.819Z,12.87
2019-01-28T05:15:54.347Z,13.60
2019-01-28T05:18:56.897Z,12.27
2019-01-28T05:21:59.668Z,10.97
2019-01-28T05:25:02.403Z,13.97
2019-01-28T05:28:05.022Z,11.60
2019-01-28T05:31:07.574Z,15.87
2019-01-28T05:34:10.194Z,13.03
2019-01-28T05:37:13.214Z,12.63
2019-01-28T05:40:20.257Z,12.57
2019-01-28T05:43:23.000Z,14.17
2019-01-28T05:46:25.648Z,14.40
2019-01-28T05:49:28.255Z,16.20
2019-01-28T05:52:30.842Z,15.33
2019-01-28T05:55:33.542Z,18.90
2019-01-28T05:58:36.198Z,13.13
2019-01-28T06:01:38.813Z,13.03
2019-01-28T06:04:41.498Z,11.77
2019-01-28T06:07:44.244Z,13.27
2019-01-28T06:10:46.798Z,14.80
2019-01-28T06:13:49.555Z,14.27
2019-01-28T06:16:52.206Z,14.07
2019-01-28T06:19:55.466Z,14.07
2019-01-28T06:22:58.202Z,14.53
2019-01-28T06:26:00.882Z,12.67
2019-01-28T06:29:03.552Z,14.63
2019-01-28T06:32:06.487Z,13.70
2019-01-28T06:35:09.358Z,14.20
2019-01-28T06:38:13.644Z,18.17
2019-01-28T06:41:16.682Z,16.53
2019-01-28T06:44:19.382Z,13.23
2019-01-28T06:47:22.291Z,16.17
2019-01-28T06:50:25.303Z,14.10
2019-01-28T06:53:27.946Z,17.67
2019-01-28T06:56:30.938Z,12.40
2019-01-28T06:59:34.060Z,12.27
2019-01-28T07:02:36.728Z,15.67
2019-01-28T07:05:39.419Z,16.47
2019-01-28T07:08:43.797Z,13.83
2019-01-28T07:11:46.611Z,16.63
2019-01-28T07:14:49.298Z,14.83
2019-01-28T07:17:55.023Z,16.17
2019-01-28T07:20:56.499Z,16.23
2019-01-28T07:23:59.158Z,12.20
2019-01-28T07:27:01.896Z,12.73
2019-01-28T07:30:06.590Z,13.33
2019-01-28T07:33:09.310Z,15.93
2019-01-28T07:36:11.949Z,18.47
2019-01-28T07:39:14.617Z,18.93
2019-01-28T07:42:17.133Z,13.50
2019-01-28T07:45:23.275Z,18.57
2019-01-28T07:48:25.805Z,14.57
2019-01-28T07:51:28.445Z,17.97
2019-01-28T07:54:31.074Z,13.97
2019-01-28T07:57:33.652Z,13.97
2019-01-28T08:00:36.293Z,18.63
2019-01-28T08:03:39.072Z,16.77
2019-01-28T08:06:41.712Z,16.73
2019-01-28T08:09:44.379Z,16.30
2019-01-28T08:12:54.430Z,14.33
2019-01-28T08:15:57.123Z,17.87
2019-01-28T08:18:59.773Z,14.27
2019-01-28T08:22:02.930Z,12.23
2019-01-28T08:25:06.750Z,14.87
2019-01-28T08:28:09.704Z,17.17
2019-01-28T08:31:12.354Z,16.17
2019-01-28T08:34:14.926Z,15.97
2019-01-28T08:37:17.554Z,14.63
2019-01-28T08:40:21.002Z,19.10
2019-01-28T08:43:23.642Z,15.43
2019-01-28T08:46:30.247Z,15.67
2019-01-28T08:49:32.035Z,27.00
2019-01-28T08:52:34.730Z,16.33
2019-01-28T08:55:37.393Z,14.60
2019-01-28T08:58:40.129Z,14.30
2019-01-28T09:01:42.841Z,13.83
2019-01-28T09:04:45.519Z,14.47
2019-01-28T09:07:48.155Z,13.37
2019-01-28T09:10:50.883Z,14.93
2019-01-28T09:13:53.472Z,13.47
2019-01-28T09:16:56.199Z,12.57
2019-01-28T09:19:59.129Z,11.53
2019-01-28T09:23:01.820Z,13.73
2019-01-28T09:26:06.535Z,13.60
2019-01-28T09:29:09.237Z,13.87
2019-01-28T09:32:11.845Z,13.23
2019-01-28T09:35:14.590Z,12.50
2019-01-28T09:38:17.122Z,15.40
2019-01-28T09:41:19.695Z,14.93
2019-01-28T09:44:22.421Z,13.67
2019-01-28T09:47:25.265Z,13.47
2019-01-28T09:50:27.982Z,12.30
2019-01-28T09:53:30.575Z,13.57
2019-01-28T09:56:33.244Z,15.63
2019-01-28T09:59:35.930Z,15.57
2019-01-28T10:02:38.446Z,16.33
2019-01-28T10:05:41.132Z,13.13
2019-01-28T10:08:43.765Z,13.90
2019-01-28T10:11:46.320Z,16.53
2019-01-28T10:14:48.830Z,12.07
2019-01-28T10:17:51.477Z,15.37
2019-01-28T10:20:54.349Z,16.57
2019-01-28T10:23:56.990Z,15.73
2019-01-28T10:26:59.651Z,12.93
2019-01-28T10:30:04.047Z,13.57
2019-01-28T10:33:08.215Z,17.37
2019-01-28T10:36:10.986Z,16.20
2019-01-28T10:39:13.800Z,15.53
2019-01-28T10:42:18.430Z,16.80
2019-01-28T10:45:21.173Z,15.13
2019-01-28T10:48:23.711Z,14.73
2019-01-28T10:51:26.435Z,14.67
2019-01-28T10:54:29.120Z,15.00
2019-01-28T10:57:31.826Z,15.70
2019-01-28T11:00:46.395Z,16.23
2019-01-28T11:03:49.007Z,12.17
2019-01-28T11:06:51.710Z,14.67
2019-01-28T11:09:57.517Z,15.33
2019-01-28T11:13:00.170Z,15.67
2019-01-28T11:16:03.558Z,15.30
2019-01-28T11:19:06.169Z,13.47
2019-01-28T11:22:08.995Z,14.70
2019-01-28T11:25:14.609Z,14.27
2019-01-28T11:28:17.431Z,16.87
2019-01-28T11:31:20.177Z,14.37
2019-01-28T11:34:22.839Z,14.53
2019-01-28T11:37:25.511Z,18.23
2019-01-28T11:40:28.237Z,16.43
2019-01-28T11:43:30.942Z,16.83
2019-01-28T11:46:33.902Z,16.93
2019-01-28T11:49:36.506Z,17.90
2019-01-28T11:52:39.145Z,12.53
2019-01-28T11:55:41.783Z,16.10
2019-01-28T11:58:44.494Z,16.93
2019-01-28T12:01:47.202Z,16.50
2019-01-28T12:04:49.919Z,16.83
2019-01-28T12:07:52.624Z,17.23
2019-01-28T12:10:55.432Z,14.70
2019-01-28T12:13:58.107Z,15.00
2019-01-28T12:17:00.841Z,19.23
2019-01-28T12:20:04.981Z,15.20
2019-01-28T12:23:07.778Z,14.27
2019-01-28T12:26:10.440Z,17.23
2019-01-28T12:29:13.198Z,17.53
2019-01-28T12:32:15.911Z,18.37
2019-01-28T12:35:18.598Z,17.37
2019-01-28T12:38:21.311Z,18.40
2019-01-28T12:41:23.984Z,14.03
2019-01-28T12:44:26.554Z,20.57
2019-01-28T12:47:29.196Z,19.57
2019-01-28T12:50:31.973Z,15.83
2019-01-28T12:53:34.679Z,19.73
2019-01-28T12:56:37.430Z,21.17
2019-01-28T12:59:40.131Z,20.17
2019-01-28T13:02:42.678Z,19.87
2019-01-28T13:05:45.264Z,20.73
2019-01-28T13:08:47.908Z,15.53
2019-01-28T13:11:50.591Z,20.50
2019-01-28T13:14:53.145Z,17.20
2019-01-28T13:17:56.146Z,18.37
2019-01-28T13:20:58.754Z,20.00
2019-01-28T13:24:01.310Z,21.07
2019-01-28T13:27:04.336Z,17.10
2019-01-28T13:30:10.822Z,19.57
2019-01-28T13:33:15.516Z,22.27
2019-01-28T13:36:18.118Z,18.90
2019-01-28T13:39:20.730Z,19.37
2019-01-28T13:42:23.299Z,14.07
2019-01-28T13:45:25.972Z,18.37
2019-01-28T13:48:28.510Z,19.23
2019-01-28T13:51:31.104Z,20.60
2019-01-28T13:54:33.785Z,19.40
2019-01-28T13:57:49.409Z,21.60
2019-01-28T14:00:52.199Z,20.23
2019-01-28T14:03:54.900Z,11.07
2019-01-28T14:06:57.554Z,18.87
2019-01-28T14:10:00.327Z,19.03
2019-01-28T14:13:03.601Z,18.30
2019-01-28T14:16:06.203Z,16.57
2019-01-28T14:19:08.724Z,17.57
2019-01-28T14:22:11.262Z,16.13
2019-01-28T14:25:14.783Z,22.97
2019-01-28T14:28:17.371Z,16.70
2019-01-28T14:31:20.313Z,18.37
2019-01-28T14:34:22.923Z,20.53
2019-01-28T14:37:25.638Z,18.27
2019-01-28T14:40:28.281Z,18.80
2019-01-28T14:43:30.931Z,17.00
2019-01-28T14:46:33.683Z,22.80
2019-01-28T14:49:37.528Z,18.37
2019-01-28T14:52:40.350Z,19.07
2019-01-28T14:55:43.357Z,21.83
2019-01-28T14:58:46.346Z,21.33
2019-01-28T15:01:49.167Z,16.77
2019-01-28T15:04:52.180Z,16.67
2019-01-28T15:07:55.100Z,18.23
2019-01-28T15:10:58.908Z,19.97
2019-01-28T15:14:01.563Z,21.67
2019-01-28T15:17:05.635Z,23.50
2019-01-28T15:24:07.244Z,15.47
2019-01-28T15:27:10.301Z,20.57
2019-01-28T15:30:16.120Z,25.60
2019-01-28T15:33:19.148Z,22.37
2019-01-28T15:36:22.011Z,20.80
2019-01-28T15:39:24.782Z,18.80
2019-01-28T15:42:27.500Z,22.57
2019-01-28T15:46:18.484Z,22.43
2019-01-28T15:49:21.224Z,24.73
2019-01-28T15:52:23.878Z,23.63
2019-01-28T15:55:32.018Z,21.77
2019-01-28T15:58:34.729Z,20.00
2019-01-28T16:01:37.900Z,24.20
2019-01-28T16:04:40.951Z,26.10
2019-01-28T16:07:44.248Z,27.13
2019-01-28T16:10:47.109Z,22.57
2019-01-28T16:13:50.071Z,30.77
2019-01-28T16:16:52.939Z,33.03
2019-01-28T16:19:56.389Z,25.20
2019-01-28T16:22:59.203Z,29.80
2019-01-28T16:26:04.541Z,29.33
2019-01-28T16:29:07.863Z,27.80
2019-01-28T16:32:11.074Z,28.07
2019-01-28T16:35:15.642Z,24.10
2019-01-28T16:38:18.733Z,33.13
2019-01-28T16:41:21.548Z,31.80
2019-01-28T16:44:24.734Z,37.43
2019-01-28T16:47:37.812Z,33.00
2019-01-28T16:50:41.633Z,31.37
2019-01-28T16:53:44.812Z,17.70
2019-01-28T16:56:47.895Z,30.63
2019-01-28T16:59:52.788Z,33.37
2019-01-28T17:02:56.094Z,30.97
2019-01-28T17:05:58.847Z,25.97
2019-01-28T17:09:02.817Z,30.97
2019-01-28T17:12:07.728Z,32.30
2019-01-28T17:15:12.138Z,30.87
2019-01-28T17:18:15.728Z,35.27
2019-01-28T17:21:18.866Z,27.83
2019-01-28T17:24:21.827Z,22.53
2019-01-28T17:27:25.025Z,26.03
2019-01-28T17:30:33.904Z,20.77
2019-01-28T17:33:36.703Z,22.60
2019-01-28T17:36:39.544Z,17.07
2019-01-28T17:39:46.002Z,25.30
2019-01-28T17:42:49.019Z,22.67
2019-01-28T17:45:51.925Z,20.67
2019-01-28T17:48:54.596Z,19.73
2019-01-28T17:51:57.682Z,18.60
2019-01-28T17:55:00.619Z,13.37
2019-01-28T17:58:03.944Z,25.87
2019-01-28T18:01:06.682Z,10.10
2019-01-28T18:04:09.326Z,18.53
2019-01-28T18:07:11.914Z,19.53
2019-01-28T18:10:16.190Z,17.10
2019-01-28T18:13:18.766Z,18.80
2019-01-28T18:16:21.311Z,16.17
2019-01-28T18:19:24.063Z,17.63
2019-01-28T18:22:34.337Z,12.70
2019-01-28T18:25:36.949Z,17.73
2019-01-28T18:28:39.591Z,15.50
2019-01-28T18:31:42.214Z,16.30
2019-01-28T18:34:44.800Z,15.73
2019-01-28T18:37:47.514Z,11.43
2019-01-28T18:40:50.053Z,9.30
2019-01-28T18:43:52.732Z,14.03
2019-01-28T18:46:55.354Z,12.10
2019-01-28T18:49:58.684Z,13.13
2019-01-28T18:53:01.382Z,8.40
2019-01-28T18:56:05.442Z,13.17
2019-01-28T18:59:08.062Z,13.10
2019-01-28T19:02:10.787Z,11.90
2019-01-28T19:05:21.981Z,13.40
2019-01-28T19:08:42.714Z,12.17
2019-01-28T19:11:54.022Z,9.30
2019-01-28T19:15:01.757Z,11.47
2019-01-28T19:18:33.400Z,8.67
2019-01-28T19:21:41.235Z,11.80
2019-01-28T19:24:43.851Z,11.87
2019-01-28T19:27:46.609Z,7.77
2019-01-28T19:30:49.174Z,12.93
2019-01-28T19:33:51.789Z,9.73
2019-01-28T19:36:54.483Z,10.23
2019-01-28T19:39:57.030Z,7.53
2019-01-28T19:42:59.572Z,9.47
2019-01-28T19:46:02.158Z,11.70
2019-01-28T19:49:06.032Z,11.33
2019-01-28T19:52:08.806Z,4.73
2019-01-28T19:59:11.035Z,7.07
2019-01-28T20:02:13.685Z,9.60
2019-01-28T20:05:16.282Z,8.93
2019-01-28T20:08:18.992Z,8.90
2019-01-28T20:11:21.684Z,8.40
2019-01-28T20:14:24.262Z,8.97
2019-01-28T20:17:26.938Z,6.87
2019-01-28T20:20:29.563Z,9.87
2019-01-28T20:23:32.305Z,9.80
2019-01-28T20:26:34.926Z,5.77
2019-01-28T20:29:37.710Z,10.00
2019-01-28T20:32:40.360Z,6.23
2019-01-28T20:35:43.012Z,9.60
2019-01-28T20:38:45.623Z,8.23
2019-01-28T20:41:48.229Z,10.33
2019-01-28T20:44:50.841Z,8.43
2019-01-28T20:47:55.513Z,8.03
2019-01-28T20:50:58.283Z,7.93
2019-01-28T20:54:00.905Z,9.07
2019-01-28T20:57:03.673Z,8.07
2019-01-28T21:00:11.151Z,10.60
2019-01-28T21:03:13.802Z,8.97
2019-01-28T21:06:16.452Z,7.37
2019-01-28T21:09:21.228Z,6.00
2019-01-28T21:12:23.865Z,8.43
2019-01-28T21:15:27.395Z,11.50
2019-01-28T21:18:29.976Z,6.97
2019-01-28T21:21:32.914Z,7.97
2019-01-28T21:24:37.064Z,10.23
2019-01-28T21:27:39.741Z,8.10
2019-01-28T21:30:42.389Z,6.90
2019-01-28T21:33:45.064Z,7.00
2019-01-28T21:37:10.037Z,8.63
2019-01-28T21:40:12.783Z,9.40
2019-01-28T21:43:15.386Z,7.03
2019-01-28T21:46:18.246Z,6.17
2019-01-28T21:49:21.175Z,7.87
2019-01-28T21:52:23.739Z,7.60
2019-01-28T21:55:26.628Z,7.63
2019-01-28T21:58:29.141Z,7.60
2019-01-28T22:01:31.706Z,5.63
2019-01-28T22:04:34.353Z,9.13
2019-01-28T22:07:37.011Z,7.83
2019-01-28T22:10:39.658Z,10.60
2019-01-28T22:13:42.298Z,11.63
2019-01-28T22:16:44.826Z,6.57
2019-01-28T22:19:47.492Z,7.43
2019-01-28T22:22:50.073Z,10.07
2019-01-28T22:25:52.607Z,7.40
2019-01-28T22:28:56.128Z,8.73
2019-01-28T22:31:58.759Z,7.50
2019-01-28T22:35:01.262Z,6.43
2019-01-28T22:38:03.888Z,7.97
2019-01-28T22:41:06.448Z,8.77
2019-01-28T22:44:09.168Z,7.93
2019-01-28T22:47:11.808Z,9.13
2019-01-28T22:50:15.450Z,6.77
2019-01-28T22:53:17.998Z,7.13
2019-01-28T22:56:20.702Z,7.63
2019-01-28T22:59:23.220Z,14.93
2019-01-28T23:02:25.858Z,8.77
2019-01-28T23:05:28.436Z,5.93
2019-01-28T23:08:31.116Z,7.47
2019-01-28T23:11:33.746Z,7.30
2019-01-28T23:14:36.420Z,6.80
2019-01-28T23:17:39.074Z,7.13
2019-01-28T23:20:41.806Z,7.53
2019-01-28T23:23:44.424Z,6.33
2019-01-28T23:26:48.030Z,7.87
2019-01-28T23:29:50.587Z,7.50
2019-01-28T23:32:53.353Z,5.57
2019-01-28T23:35:55.973Z,7.83
2019-01-28T23:38:58.691Z,10.50
2019-01-28T23:42:01.330Z,7.10
2019-01-28T23:45:04.930Z,6.37
2019-01-28T23:48:07.613Z,7.67
2019-01-28T23:51:10.331Z,8.60
2019-01-28T23:54:12.843Z,8.80
2019-01-28T23:57:15.598Z,7.53
